Time;durP1;ratioP1;P1;durP2;ratioP2;P2;SDS_P1;SDS_P2;PMS_P1;PMS_P2;Temp;Humidity;BMP_temperature;BMP_pressure;BME280_temperature;BME280_humidity;BME280_pressure;Samples;Min_cycle;Max_cycle;Signal;HPM_P1;HPM_P2
2019/05/25 00:00:47;;;;;;;5.65;5.05;;;;;;;11.23;77.98438;94979.77;;;;
2019/05/25 00:01:48;;;;;;;5.65;5.05;;;;;;;11.23;77.98438;94979.77;;;;
2019/05/25 00:02:49;;;;;;;5.65;5.05;;;;;;;11.23;77.98438;94979.77;;;;
2019/05/25 00:03:50;;;;;;;5.749999;5.25;;;;;;;11.12;78.57715;94968.41;;;;
2019/05/25 00:04:51;;;;;;;5.749999;5.25;;;;;;;11.12;78.57715;94968.41;;;;
2019/05/25 00:05:52;;;;;;;5.749999;5.25;;;;;;;11.12;78.57715;94968.41;;;;
2019/05/25 00:06:53;;;;;;;5.749999;5.25;;;;;;;11.12;78.57715;94968.41;;;;
2019/05/25 00:07:54;;;;;;;5.749999;5.25;;;;;;;11.12;78.57715;94968.41;;;;
2019/05/25 00:08:56;;;;;;;5.749999;5.25;;;;;;;11.12;78.57715;94968.41;;;;
2019/05/25 00:09:57;;;;;;;5.749999;5.25;;;;;;;11.12;78.57715;94968.41;;;;
2019/05/25 00:10:58;;;;;;;5.749999;5.25;;;;;;;11.12;78.57715;94968.41;;;;
2019/05/25 00:11:59;;;;;;;5.749999;5.25;;;;;;;11.12;78.57715;94968.41;;;;
2019/05/25 00:13:00;;;;;;;5.749999;5.25;;;;;;;11.12;78.57715;94968.41;;;;
2019/05/25 00:14:01;;;;;;;6.149999;5.55;;;;;;;10.92;79.09668;94964.03;;;;
2019/05/25 00:15:02;;;;;;;6.149999;5.55;;;;;;;10.92;79.09668;94964.03;;;;
2019/05/25 00:16:03;;;;;;;6.149999;5.55;;;;;;;10.92;79.09668;94964.03;;;;
2019/05/25 00:17:04;;;;;;;6.149999;5.55;;;;;;;10.92;79.09668;94964.03;;;;
2019/05/25 00:18:05;;;;;;;6.149999;5.55;;;;;;;10.92;79.09668;94964.03;;;;
2019/05/25 00:19:06;;;;;;;6.149999;5.55;;;;;;;10.92;79.09668;94964.03;;;;
2019/05/25 00:20:08;;;;;;;6.149999;5.55;;;;;;;10.92;79.09668;94964.03;;;;
2019/05/25 00:21:09;;;;;;;6.149999;5.55;;;;;;;10.92;79.09668;94964.03;;;;
2019/05/25 00:22:10;;;;;;;6.149999;5.55;;;;;;;10.92;79.09668;94964.03;;;;
2019/05/25 00:23:11;;;;;;;6.149999;5.55;;;;;;;10.92;79.09668;94964.03;;;;
2019/05/25 00:24:12;;;;;;;6.650001;5.149999;;;;;;;10.79;79.52148;94961.25;;;;
2019/05/25 00:25:13;;;;;;;6.650001;5.149999;;;;;;;10.79;79.52148;94961.25;;;;
2019/05/25 00:26:14;;;;;;;6.650001;5.149999;;;;;;;10.79;79.52148;94961.25;;;;
2019/05/25 00:27:15;;;;;;;6.650001;5.149999;;;;;;;10.79;79.52148;94961.25;;;;
2019/05/25 00:28:16;;;;;;;6.650001;5.149999;;;;;;;10.79;79.52148;94961.25;;;;
2019/05/25 00:29:17;;;;;;;6.650001;5.149999;;;;;;;10.79;79.52148;94961.25;;;;
2019/05/25 00:30:18;;;;;;;6.650001;5.149999;;;;;;;10.79;79.52148;94961.25;;;;
2019/05/25 00:31:19;;;;;;;6.650001;5.149999;;;;;;;10.79;79.52148;94961.25;;;;
2019/05/25 00:32:20;;;;;;;6.650001;5.149999;;;;;;;10.79;79.52148;94961.25;;;;
2019/05/25 00:33:22;;;;;;;6.650001;5.149999;;;;;;;10.79;79.52148;94961.25;;;;
2019/05/25 00:34:23;;;;;;;6.650001;5.149999;;;;;;;10.79;79.52148;94961.25;;;;
2019/05/25 00:35:24;;;;;;;6.699999;5.25;;;;;;;10.61;79.83105;94956.09;;;;
2019/05/25 00:36:25;;;;;;;6.699999;5.25;;;;;;;10.61;79.83105;94956.09;;;;
2019/05/25 00:37:26;;;;;;;6.699999;5.25;;;;;;;10.61;79.83105;94956.09;;;;
2019/05/25 00:38:27;;;;;;;6.699999;5.25;;;;;;;10.61;79.83105;94956.09;;;;
2019/05/25 00:39:28;;;;;;;6.699999;5.25;;;;;;;10.61;79.83105;94956.09;;;;
2019/05/25 00:40:29;;;;;;;6.699999;5.25;;;;;;;10.61;79.83105;94956.09;;;;
2019/05/25 00:41:30;;;;;;;6.699999;5.25;;;;;;;10.61;79.83105;94956.09;;;;
2019/05/25 00:42:31;;;;;;;6.699999;5.25;;;;;;;10.61;79.83105;94956.09;;;;
2019/05/25 00:43:32;;;;;;;6.699999;5.25;;;;;;;10.61;79.83105;94956.09;;;;
2019/05/25 00:44:33;;;;;;;6.699999;5.25;;;;;;;10.61;79.83105;94956.09;;;;
2019/05/25 00:45:34;;;;;;;5.85;5.3;;;;;;;10.48;80.23438;94950.05;;;;
2019/05/25 00:46:35;;;;;;;5.85;5.3;;;;;;;10.48;80.23438;94950.05;;;;
2019/05/25 00:47:36;;;;;;;5.85;5.3;;;;;;;10.48;80.23438;94950.05;;;;
2019/05/25 00:48:37;;;;;;;5.85;5.3;;;;;;;10.48;80.23438;94950.05;;;;
2019/05/25 00:49:39;;;;;;;5.85;5.3;;;;;;;10.48;80.23438;94950.05;;;;
2019/05/25 00:50:40;;;;;;;5.85;5.3;;;;;;;10.48;80.23438;94950.05;;;;
2019/05/25 00:51:41;;;;;;;5.85;5.3;;;;;;;10.48;80.23438;94950.05;;;;
2019/05/25 00:52:42;;;;;;;5.85;5.3;;;;;;;10.48;80.23438;94950.05;;;;
2019/05/25 00:53:43;;;;;;;5.85;5.3;;;;;;;10.48;80.23438;94950.05;;;;
2019/05/25 00:54:44;;;;;;;5.85;5.3;;;;;;;10.48;80.23438;94950.05;;;;
2019/05/25 00:55:45;;;;;;;5.85;5.3;;;;;;;10.48;80.23438;94950.05;;;;
2019/05/25 00:56:46;;;;;;;7.3;5.4;;;;;;;10.29;80.52832;94950.92;;;;
2019/05/25 00:57:47;;;;;;;7.3;5.4;;;;;;;10.29;80.52832;94950.92;;;;
2019/05/25 00:58:48;;;;;;;7.3;5.4;;;;;;;10.29;80.52832;94950.92;;;;
2019/05/25 00:59:49;;;;;;;7.3;5.4;;;;;;;10.29;80.52832;94950.92;;;;
2019/05/25 01:00:50;;;;;;;7.3;5.4;;;;;;;10.29;80.52832;94950.92;;;;
2019/05/25 01:01:52;;;;;;;7.3;5.4;;;;;;;10.29;80.52832;94950.92;;;;
2019/05/25 01:02:53;;;;;;;7.3;5.4;;;;;;;10.29;80.52832;94950.92;;;;
2019/05/25 01:03:54;;;;;;;7.3;5.4;;;;;;;10.29;80.52832;94950.92;;;;
2019/05/25 01:04:55;;;;;;;7.3;5.4;;;;;;;10.29;80.52832;94950.92;;;;
2019/05/25 01:05:56;;;;;;;7.3;5.4;;;;;;;10.29;80.52832;94950.92;;;;
2019/05/25 01:06:57;;;;;;;6.95;5.649999;;;;;;;10.12;81.01074;94943.3;;;;
2019/05/25 01:07:58;;;;;;;6.95;5.649999;;;;;;;10.12;81.01074;94943.3;;;;
2019/05/25 01:09:00;;;;;;;6.95;5.649999;;;;;;;10.12;81.01074;94943.3;;;;
2019/05/25 01:10:01;;;;;;;6.95;5.649999;;;;;;;10.12;81.01074;94943.3;;;;
2019/05/25 01:11:03;;;;;;;6.95;5.649999;;;;;;;10.12;81.01074;94943.3;;;;
2019/05/25 01:12:04;;;;;;;6.95;5.649999;;;;;;;10.12;81.01074;94943.3;;;;
2019/05/25 01:13:05;;;;;;;6.95;5.649999;;;;;;;10.12;81.01074;94943.3;;;;
2019/05/25 01:14:06;;;;;;;6.95;5.649999;;;;;;;10.12;81.01074;94943.3;;;;
2019/05/25 01:15:08;;;;;;;6.95;5.649999;;;;;;;10.12;81.01074;94943.3;;;;
2019/05/25 01:16:10;;;;;;;6.95;5.649999;;;;;;;10.12;81.01074;94943.3;;;;
2019/05/25 01:17:12;;;;;;;6.6;5.9;;;;;;;9.93;81.4873;94948.44;;;;
2019/05/25 01:18:13;;;;;;;6.6;5.9;;;;;;;9.93;81.4873;94948.44;;;;
2019/05/25 01:19:14;;;;;;;6.6;5.9;;;;;;;9.93;81.4873;94948.44;;;;
2019/05/25 01:20:15;;;;;;;6.6;5.9;;;;;;;9.93;81.4873;94948.44;;;;
2019/05/25 01:21:16;;;;;;;6.6;5.9;;;;;;;9.93;81.4873;94948.44;;;;
2019/05/25 01:22:18;;;;;;;6.6;5.9;;;;;;;9.93;81.4873;94948.44;;;;
2019/05/25 01:23:19;;;;;;;6.6;5.9;;;;;;;9.93;81.4873;94948.44;;;;
2019/05/25 01:24:20;;;;;;;6.6;5.9;;;;;;;9.93;81.4873;94948.44;;;;
2019/05/25 01:25:21;;;;;;;6.6;5.9;;;;;;;9.93;81.4873;94948.44;;;;
2019/05/25 01:26:22;;;;;;;6.6;5.9;;;;;;;9.93;81.4873;94948.44;;;;
2019/05/25 01:27:23;;;;;;;6.6;5.9;;;;;;;9.93;81.4873;94948.44;;;;
2019/05/25 01:28:24;;;;;;;6.1;5.6;;;;;;;9.82;82.00098;94941.62;;;;
2019/05/25 01:29:25;;;;;;;6.1;5.6;;;;;;;9.82;82.00098;94941.62;;;;
2019/05/25 01:30:27;;;;;;;6.1;5.6;;;;;;;9.82;82.00098;94941.62;;;;
2019/05/25 01:31:28;;;;;;;6.1;5.6;;;;;;;9.82;82.00098;94941.62;;;;
2019/05/25 01:32:29;;;;;;;6.1;5.6;;;;;;;9.82;82.00098;94941.62;;;;
2019/05/25 01:33:30;;;;;;;6.1;5.6;;;;;;;9.82;82.00098;94941.62;;;;
2019/05/25 01:34:31;;;;;;;6.1;5.6;;;;;;;9.82;82.00098;94941.62;;;;
2019/05/25 01:35:32;;;;;;;6.1;5.6;;;;;;;9.82;82.00098;94941.62;;;;
2019/05/25 01:36:33;;;;;;;6.1;5.6;;;;;;;9.82;82.00098;94941.62;;;;
2019/05/25 01:37:34;;;;;;;6.1;5.6;;;;;;;9.82;82.00098;94941.62;;;;
2019/05/25 01:38:35;;;;;;;5.849999;5.25;;;;;;;9.69;82.4668;94945.96;;;;
2019/05/25 01:39:37;;;;;;;5.849999;5.25;;;;;;;9.69;82.4668;94945.96;;;;
2019/05/25 01:40:38;;;;;;;5.849999;5.25;;;;;;;9.69;82.4668;94945.96;;;;
2019/05/25 01:41:39;;;;;;;5.849999;5.25;;;;;;;9.69;82.4668;94945.96;;;;
2019/05/25 01:42:40;;;;;;;5.849999;5.25;;;;;;;9.69;82.4668;94945.96;;;;
2019/05/25 01:43:41;;;;;;;5.849999;5.25;;;;;;;9.69;82.4668;94945.96;;;;
2019/05/25 01:44:42;;;;;;;5.849999;5.25;;;;;;;9.69;82.4668;94945.96;;;;
2019/05/25 01:45:44;;;;;;;5.849999;5.25;;;;;;;9.69;82.4668;94945.96;;;;
2019/05/25 01:46:45;;;;;;;5.849999;5.25;;;;;;;9.69;82.4668;94945.96;;;;
2019/05/25 01:47:46;;;;;;;5.849999;5.25;;;;;;;9.69;82.4668;94945.96;;;;
2019/05/25 01:48:47;;;;;;;5.849999;5.25;;;;;;;9.69;82.4668;94945.96;;;;
2019/05/25 01:49:49;;;;;;;7.1;6.05;;;;;;;9.65;82.92676;94948;;;;
2019/05/25 01:50:50;;;;;;;7.1;6.05;;;;;;;9.65;82.92676;94948;;;;
2019/05/25 01:51:51;;;;;;;7.1;6.05;;;;;;;9.65;82.92676;94948;;;;
2019/05/25 01:52:52;;;;;;;7.1;6.05;;;;;;;9.65;82.92676;94948;;;;
2019/05/25 01:53:53;;;;;;;7.1;6.05;;;;;;;9.65;82.92676;94948;;;;
2019/05/25 01:54:54;;;;;;;7.1;6.05;;;;;;;9.65;82.92676;94948;;;;
2019/05/25 01:55:55;;;;;;;7.1;6.05;;;;;;;9.65;82.92676;94948;;;;
2019/05/25 01:56:56;;;;;;;7.1;6.05;;;;;;;9.65;82.92676;94948;;;;
2019/05/25 01:57:58;;;;;;;7.1;6.05;;;;;;;9.65;82.92676;94948;;;;
2019/05/25 01:58:59;;;;;;;7.1;6.05;;;;;;;9.65;82.92676;94948;;;;
2019/05/25 02:00:00;;;;;;;7;5.749999;;;;;;;9.49;83.3125;94956.72;;;;
2019/05/25 02:01:01;;;;;;;7;5.749999;;;;;;;9.49;83.3125;94956.72;;;;
2019/05/25 02:02:03;;;;;;;7;5.749999;;;;;;;9.49;83.3125;94956.72;;;;
2019/05/25 02:03:04;;;;;;;7;5.749999;;;;;;;9.49;83.3125;94956.72;;;;
2019/05/25 02:04:05;;;;;;;7;5.749999;;;;;;;9.49;83.3125;94956.72;;;;
2019/05/25 02:05:06;;;;;;;7;5.749999;;;;;;;9.49;83.3125;94956.72;;;;
2019/05/25 02:06:07;;;;;;;7;5.749999;;;;;;;9.49;83.3125;94956.72;;;;
2019/05/25 02:07:09;;;;;;;7;5.749999;;;;;;;9.49;83.3125;94956.72;;;;
2019/05/25 02:08:10;;;;;;;7;5.749999;;;;;;;9.49;83.3125;94956.72;;;;
2019/05/25 02:09:11;;;;;;;7;5.749999;;;;;;;9.49;83.3125;94956.72;;;;
2019/05/25 02:10:12;;;;;;;7;5.749999;;;;;;;9.49;83.3125;94956.72;;;;
2019/05/25 02:11:13;;;;;;;7;5.749999;;;;;;;9.49;83.3125;94956.72;;;;
2019/05/25 02:12:15;;;;;;;7;5.749999;;;;;;;9.49;83.3125;94956.72;;;;
2019/05/25 02:13:16;;;;;;;7;5.749999;;;;;;;9.49;83.3125;94956.72;;;;
2019/05/25 02:14:17;;;;;;;7;5.749999;;;;;;;9.49;83.3125;94956.72;;;;
2019/05/25 02:15:18;;;;;;;7;5.749999;;;;;;;9.49;83.3125;94956.72;;;;
2019/05/25 02:16:19;;;;;;;7;5.749999;;;;;;;9.49;83.3125;94956.72;;;;
2019/05/25 02:17:20;;;;;;;7;5.749999;;;;;;;9.49;83.3125;94956.72;;;;
2019/05/25 02:18:22;;;;;;;7;5.749999;;;;;;;9.49;83.3125;94956.72;;;;
2019/05/25 02:19:23;;;;;;;7;5.749999;;;;;;;9.49;83.3125;94956.72;;;;
2019/05/25 02:20:24;;;;;;;7;5.749999;;;;;;;9.49;83.3125;94956.72;;;;
2019/05/25 02:21:25;;;;;;;7.000001;6.299999;;;;;;;9.28;84.30371;94958.8;;;;
2019/05/25 02:22:26;;;;;;;7.000001;6.299999;;;;;;;9.28;84.30371;94958.8;;;;
2019/05/25 02:23:27;;;;;;;7.000001;6.299999;;;;;;;9.28;84.30371;94958.8;;;;
2019/05/25 02:24:28;;;;;;;7.000001;6.299999;;;;;;;9.28;84.30371;94958.8;;;;
2019/05/25 02:25:30;;;;;;;7.000001;6.299999;;;;;;;9.28;84.30371;94958.8;;;;
2019/05/25 02:26:31;;;;;;;7.000001;6.299999;;;;;;;9.28;84.30371;94958.8;;;;
2019/05/25 02:27:32;;;;;;;7.000001;6.299999;;;;;;;9.28;84.30371;94958.8;;;;
2019/05/25 02:28:33;;;;;;;7.000001;6.299999;;;;;;;9.28;84.30371;94958.8;;;;
2019/05/25 02:29:35;;;;;;;7.000001;6.299999;;;;;;;9.28;84.30371;94958.8;;;;
2019/05/25 02:30:36;;;;;;;7.000001;6.299999;;;;;;;9.28;84.30371;94958.8;;;;
2019/05/25 02:31:37;;;;;;;8.049999;6.400001;;;;;;;9.3;84.76465;94955.35;;;;
2019/05/25 02:32:38;;;;;;;8.049999;6.400001;;;;;;;9.3;84.76465;94955.35;;;;
2019/05/25 02:33:39;;;;;;;8.049999;6.400001;;;;;;;9.3;84.76465;94955.35;;;;
2019/05/25 02:34:40;;;;;;;8.049999;6.400001;;;;;;;9.3;84.76465;94955.35;;;;
2019/05/25 02:35:41;;;;;;;8.049999;6.400001;;;;;;;9.3;84.76465;94955.35;;;;
2019/05/25 02:36:42;;;;;;;8.049999;6.400001;;;;;;;9.3;84.76465;94955.35;;;;
2019/05/25 02:37:44;;;;;;;8.049999;6.400001;;;;;;;9.3;84.76465;94955.35;;;;
2019/05/25 02:38:45;;;;;;;8.049999;6.400001;;;;;;;9.3;84.76465;94955.35;;;;
2019/05/25 02:39:46;;;;;;;8.049999;6.400001;;;;;;;9.3;84.76465;94955.35;;;;
2019/05/25 02:40:47;;;;;;;8.049999;6.400001;;;;;;;9.3;84.76465;94955.35;;;;
2019/05/25 02:41:48;;;;;;;7.250001;6.649999;;;;;;;9.34;85.1123;94957.83;;;;
2019/05/25 02:42:50;;;;;;;7.250001;6.649999;;;;;;;9.34;85.1123;94957.83;;;;
2019/05/25 02:43:51;;;;;;;7.250001;6.649999;;;;;;;9.34;85.1123;94957.83;;;;
2019/05/25 02:44:52;;;;;;;7.250001;6.649999;;;;;;;9.34;85.1123;94957.83;;;;
2019/05/25 02:45:53;;;;;;;7.250001;6.649999;;;;;;;9.34;85.1123;94957.83;;;;
2019/05/25 02:46:54;;;;;;;7.250001;6.649999;;;;;;;9.34;85.1123;94957.83;;;;
2019/05/25 02:47:55;;;;;;;7.250001;6.649999;;;;;;;9.34;85.1123;94957.83;;;;
2019/05/25 02:48:56;;;;;;;7.250001;6.649999;;;;;;;9.34;85.1123;94957.83;;;;
2019/05/25 02:49:57;;;;;;;7.250001;6.649999;;;;;;;9.34;85.1123;94957.83;;;;
2019/05/25 02:50:58;;;;;;;7.250001;6.649999;;;;;;;9.34;85.1123;94957.83;;;;
2019/05/25 02:51:59;;;;;;;7.250001;6.649999;;;;;;;9.34;85.1123;94957.83;;;;
2019/05/25 02:53:01;;;;;;;7.2;6.5;;;;;;;9.42;85.42676;94954.69;;;;
2019/05/25 02:54:02;;;;;;;7.2;6.5;;;;;;;9.42;85.42676;94954.69;;;;
2019/05/25 02:55:03;;;;;;;7.2;6.5;;;;;;;9.42;85.42676;94954.69;;;;
2019/05/25 02:56:10;;;;;;;7.2;6.5;;;;;;;9.42;85.42676;94954.69;;;;
2019/05/25 02:57:11;;;;;;;7.2;6.5;;;;;;;9.42;85.42676;94954.69;;;;
2019/05/25 02:58:12;;;;;;;7.2;6.5;;;;;;;9.42;85.42676;94954.69;;;;
2019/05/25 02:59:13;;;;;;;7.2;6.5;;;;;;;9.42;85.42676;94954.69;;;;
2019/05/25 03:00:14;;;;;;;7.2;6.5;;;;;;;9.42;85.42676;94954.69;;;;
2019/05/25 03:01:36;;;;;;;7.2;6.5;;;;;;;9.42;85.42676;94954.69;;;;
2019/05/25 03:02:37;;;;;;;7.2;6.5;;;;;;;9.42;85.42676;94954.69;;;;
2019/05/25 03:03:38;;;;;;;10.2;7.1;;;;;;;9.41;85.6582;94959.91;;;;
2019/05/25 03:04:39;;;;;;;10.2;7.1;;;;;;;9.41;85.6582;94959.91;;;;
2019/05/25 03:05:41;;;;;;;10.2;7.1;;;;;;;9.41;85.6582;94959.91;;;;
2019/05/25 03:06:42;;;;;;;10.2;7.1;;;;;;;9.41;85.6582;94959.91;;;;
2019/05/25 03:07:43;;;;;;;10.2;7.1;;;;;;;9.41;85.6582;94959.91;;;;
2019/05/25 03:08:44;;;;;;;10.2;7.1;;;;;;;9.41;85.6582;94959.91;;;;
2019/05/25 03:09:45;;;;;;;10.2;7.1;;;;;;;9.41;85.6582;94959.91;;;;
2019/05/25 03:10:46;;;;;;;10.2;7.1;;;;;;;9.41;85.6582;94959.91;;;;
2019/05/25 03:11:47;;;;;;;10.2;7.1;;;;;;;9.41;85.6582;94959.91;;;;
2019/05/25 03:12:48;;;;;;;10.2;7.1;;;;;;;9.41;85.6582;94959.91;;;;
2019/05/25 03:13:49;;;;;;;7.299999;6.6;;;;;;;9.43;86.07715;94960.88;;;;
2019/05/25 03:14:50;;;;;;;7.299999;6.6;;;;;;;9.43;86.07715;94960.88;;;;
2019/05/25 03:15:51;;;;;;;7.299999;6.6;;;;;;;9.43;86.07715;94960.88;;;;
2019/05/25 03:16:53;;;;;;;7.299999;6.6;;;;;;;9.43;86.07715;94960.88;;;;
2019/05/25 03:17:54;;;;;;;7.299999;6.6;;;;;;;9.43;86.07715;94960.88;;;;
2019/05/25 03:18:55;;;;;;;7.299999;6.6;;;;;;;9.43;86.07715;94960.88;;;;
2019/05/25 03:19:56;;;;;;;7.299999;6.6;;;;;;;9.43;86.07715;94960.88;;;;
2019/05/25 03:20:57;;;;;;;7.299999;6.6;;;;;;;9.43;86.07715;94960.88;;;;
2019/05/25 03:21:58;;;;;;;7.299999;6.6;;;;;;;9.43;86.07715;94960.88;;;;
2019/05/25 03:22:59;;;;;;;7.299999;6.6;;;;;;;9.43;86.07715;94960.88;;;;
2019/05/25 03:24:00;;;;;;;7.299999;6.6;;;;;;;9.43;86.07715;94960.88;;;;
2019/05/25 03:25:01;;;;;;;7.6;6.75;;;;;;;9.27;86.42773;94961.6;;;;
2019/05/25 03:26:03;;;;;;;7.6;6.75;;;;;;;9.27;86.42773;94961.6;;;;
2019/05/25 03:27:04;;;;;;;7.6;6.75;;;;;;;9.27;86.42773;94961.6;;;;
2019/05/25 03:28:05;;;;;;;7.6;6.75;;;;;;;9.27;86.42773;94961.6;;;;
2019/05/25 03:29:06;;;;;;;7.6;6.75;;;;;;;9.27;86.42773;94961.6;;;;
2019/05/25 03:30:07;;;;;;;7.6;6.75;;;;;;;9.27;86.42773;94961.6;;;;
2019/05/25 03:31:08;;;;;;;7.6;6.75;;;;;;;9.27;86.42773;94961.6;;;;
2019/05/25 03:32:09;;;;;;;7.6;6.75;;;;;;;9.27;86.42773;94961.6;;;;
2019/05/25 03:33:11;;;;;;;7.6;6.75;;;;;;;9.27;86.42773;94961.6;;;;
2019/05/25 03:34:12;;;;;;;7.6;6.75;;;;;;;9.27;86.42773;94961.6;;;;
2019/05/25 03:35:13;;;;;;;7.6;6.900001;;;;;;;9.13;86.97363;94952.12;;;;
2019/05/25 03:36:14;;;;;;;7.6;6.900001;;;;;;;9.13;86.97363;94952.12;;;;
2019/05/25 03:37:15;;;;;;;7.6;6.900001;;;;;;;9.13;86.97363;94952.12;;;;
2019/05/25 03:38:16;;;;;;;7.6;6.900001;;;;;;;9.13;86.97363;94952.12;;;;
2019/05/25 03:39:17;;;;;;;7.6;6.900001;;;;;;;9.13;86.97363;94952.12;;;;
2019/05/25 03:40:18;;;;;;;7.6;6.900001;;;;;;;9.13;86.97363;94952.12;;;;
2019/05/25 03:41:19;;;;;;;7.6;6.900001;;;;;;;9.13;86.97363;94952.12;;;;
2019/05/25 03:42:20;;;;;;;7.6;6.900001;;;;;;;9.13;86.97363;94952.12;;;;
2019/05/25 03:43:21;;;;;;;7.6;6.900001;;;;;;;9.13;86.97363;94952.12;;;;
2019/05/25 03:44:22;;;;;;;7.6;6.900001;;;;;;;9.13;86.97363;94952.12;;;;
2019/05/25 03:45:24;;;;;;;7.9;7.2;;;;;;;8.96;87.49219;94963.32;;;;
2019/05/25 03:46:25;;;;;;;7.9;7.2;;;;;;;8.96;87.49219;94963.32;;;;
2019/05/25 03:47:26;;;;;;;7.9;7.2;;;;;;;8.96;87.49219;94963.32;;;;
2019/05/25 03:48:27;;;;;;;7.9;7.2;;;;;;;8.96;87.49219;94963.32;;;;
2019/05/25 03:49:28;;;;;;;7.9;7.2;;;;;;;8.96;87.49219;94963.32;;;;
2019/05/25 03:50:29;;;;;;;7.9;7.2;;;;;;;8.96;87.49219;94963.32;;;;
2019/05/25 03:51:30;;;;;;;7.9;7.2;;;;;;;8.96;87.49219;94963.32;;;;
2019/05/25 03:52:31;;;;;;;7.9;7.2;;;;;;;8.96;87.49219;94963.32;;;;
2019/05/25 03:53:32;;;;;;;7.9;7.2;;;;;;;8.96;87.49219;94963.32;;;;
2019/05/25 03:54:33;;;;;;;7.9;7.2;;;;;;;8.96;87.49219;94963.32;;;;
2019/05/25 03:55:34;;;;;;;7.9;7.2;;;;;;;8.96;87.49219;94963.32;;;;
2019/05/25 03:56:35;;;;;;;7.9;7.15;;;;;;;8.92;87.99219;94960.8;;;;
2019/05/25 03:57:36;;;;;;;7.9;7.15;;;;;;;8.92;87.99219;94960.8;;;;
2019/05/25 03:58:38;;;;;;;7.9;7.15;;;;;;;8.92;87.99219;94960.8;;;;
2019/05/25 03:59:39;;;;;;;7.9;7.15;;;;;;;8.92;87.99219;94960.8;;;;
2019/05/25 04:00:40;;;;;;;7.9;7.15;;;;;;;8.92;87.99219;94960.8;;;;
2019/05/25 04:01:41;;;;;;;7.9;7.15;;;;;;;8.92;87.99219;94960.8;;;;
2019/05/25 04:02:42;;;;;;;7.9;7.15;;;;;;;8.92;87.99219;94960.8;;;;
2019/05/25 04:03:43;;;;;;;7.9;7.15;;;;;;;8.92;87.99219;94960.8;;;;
2019/05/25 04:04:44;;;;;;;7.9;7.15;;;;;;;8.92;87.99219;94960.8;;;;
2019/05/25 04:05:45;;;;;;;7.9;7.15;;;;;;;8.92;87.99219;94960.8;;;;
2019/05/25 04:06:46;;;;;;;8.349998;7.5;;;;;;;8.85;88.25488;94958.74;;;;
2019/05/25 04:07:47;;;;;;;8.349998;7.5;;;;;;;8.85;88.25488;94958.74;;;;
2019/05/25 04:08:48;;;;;;;8.349998;7.5;;;;;;;8.85;88.25488;94958.74;;;;
2019/05/25 04:09:49;;;;;;;8.349998;7.5;;;;;;;8.85;88.25488;94958.74;;;;
2019/05/25 04:10:50;;;;;;;8.349998;7.5;;;;;;;8.85;88.25488;94958.74;;;;
2019/05/25 04:11:51;;;;;;;8.349998;7.5;;;;;;;8.85;88.25488;94958.74;;;;
2019/05/25 04:12:53;;;;;;;8.349998;7.5;;;;;;;8.85;88.25488;94958.74;;;;
2019/05/25 04:13:54;;;;;;;8.349998;7.5;;;;;;;8.85;88.25488;94958.74;;;;
2019/05/25 04:14:55;;;;;;;8.349998;7.5;;;;;;;8.85;88.25488;94958.74;;;;
2019/05/25 04:15:59;;;;;;;8.349998;7.5;;;;;;;8.85;88.25488;94958.74;;;;
2019/05/25 04:17:00;;;;;;;8.349998;7.5;;;;;;;8.85;88.25488;94958.74;;;;
2019/05/25 04:18:01;;;;;;;8.1;7.3;;;;;;;8.93;88.78418;94971.74;;;;
2019/05/25 04:19:02;;;;;;;8.1;7.3;;;;;;;8.93;88.78418;94971.74;;;;
2019/05/25 04:20:03;;;;;;;8.1;7.3;;;;;;;8.93;88.78418;94971.74;;;;
2019/05/25 04:21:04;;;;;;;8.1;7.3;;;;;;;8.93;88.78418;94971.74;;;;
2019/05/25 04:22:05;;;;;;;8.1;7.3;;;;;;;8.93;88.78418;94971.74;;;;
2019/05/25 04:23:06;;;;;;;8.1;7.3;;;;;;;8.93;88.78418;94971.74;;;;
2019/05/25 04:24:08;;;;;;;8.1;7.3;;;;;;;8.93;88.78418;94971.74;;;;
2019/05/25 04:25:12;;;;;;;8.1;7.3;;;;;;;8.93;88.78418;94971.74;;;;
2019/05/25 04:26:14;;;;;;;8.1;7.3;;;;;;;8.93;88.78418;94971.74;;;;
2019/05/25 04:27:15;;;;;;;8.1;7.3;;;;;;;8.93;88.78418;94971.74;;;;
2019/05/25 04:28:16;;;;;;;8.85;7.2;;;;;;;9.05;89.04004;94986.13;;;;
2019/05/25 04:29:17;;;;;;;8.85;7.2;;;;;;;9.05;89.04004;94986.13;;;;
2019/05/25 04:30:18;;;;;;;8.85;7.2;;;;;;;9.05;89.04004;94986.13;;;;
2019/05/25 04:31:19;;;;;;;8.85;7.2;;;;;;;9.05;89.04004;94986.13;;;;
2019/05/25 04:32:20;;;;;;;8.85;7.2;;;;;;;9.05;89.04004;94986.13;;;;
2019/05/25 04:33:21;;;;;;;8.85;7.2;;;;;;;9.05;89.04004;94986.13;;;;
2019/05/25 04:34:22;;;;;;;8.85;7.2;;;;;;;9.05;89.04004;94986.13;;;;
2019/05/25 04:35:23;;;;;;;8.85;7.2;;;;;;;9.05;89.04004;94986.13;;;;
2019/05/25 04:36:24;;;;;;;8.85;7.2;;;;;;;9.05;89.04004;94986.13;;;;
2019/05/25 04:37:26;;;;;;;8.85;7.2;;;;;;;9.05;89.04004;94986.13;;;;
2019/05/25 04:38:27;;;;;;;8.200001;7.4;;;;;;;9.32;89.24512;94985.02;;;;
2019/05/25 04:39:28;;;;;;;8.200001;7.4;;;;;;;9.32;89.24512;94985.02;;;;
2019/05/25 04:40:29;;;;;;;8.200001;7.4;;;;;;;9.32;89.24512;94985.02;;;;
2019/05/25 04:41:30;;;;;;;8.200001;7.4;;;;;;;9.32;89.24512;94985.02;;;;
2019/05/25 04:42:31;;;;;;;8.200001;7.4;;;;;;;9.32;89.24512;94985.02;;;;
2019/05/25 04:43:32;;;;;;;8.200001;7.4;;;;;;;9.32;89.24512;94985.02;;;;
2019/05/25 04:44:33;;;;;;;8.200001;7.4;;;;;;;9.32;89.24512;94985.02;;;;
2019/05/25 04:45:34;;;;;;;8.200001;7.4;;;;;;;9.32;89.24512;94985.02;;;;
2019/05/25 04:46:35;;;;;;;8.200001;7.4;;;;;;;9.32;89.24512;94985.02;;;;
2019/05/25 04:47:36;;;;;;;8.200001;7.4;;;;;;;9.32;89.24512;94985.02;;;;
2019/05/25 04:48:37;;;;;;;8.200001;7.4;;;;;;;9.32;89.24512;94985.02;;;;
2019/05/25 04:49:38;;;;;;;7.449999;6.700001;;;;;;;9.6;89.43848;94983.77;;;;
2019/05/25 04:50:39;;;;;;;7.449999;6.700001;;;;;;;9.6;89.43848;94983.77;;;;
2019/05/25 04:51:41;;;;;;;7.449999;6.700001;;;;;;;9.6;89.43848;94983.77;;;;
2019/05/25 04:52:42;;;;;;;7.449999;6.700001;;;;;;;9.6;89.43848;94983.77;;;;
2019/05/25 04:53:43;;;;;;;7.449999;6.700001;;;;;;;9.6;89.43848;94983.77;;;;
2019/05/25 04:54:44;;;;;;;7.449999;6.700001;;;;;;;9.6;89.43848;94983.77;;;;
2019/05/25 04:55:45;;;;;;;7.449999;6.700001;;;;;;;9.6;89.43848;94983.77;;;;
2019/05/25 04:56:46;;;;;;;7.449999;6.700001;;;;;;;9.6;89.43848;94983.77;;;;
2019/05/25 04:57:47;;;;;;;7.449999;6.700001;;;;;;;9.6;89.43848;94983.77;;;;
2019/05/25 04:58:48;;;;;;;7.449999;6.700001;;;;;;;9.6;89.43848;94983.77;;;;
2019/05/25 04:59:49;;;;;;;8.150001;6.85;;;;;;;10.11;89.64746;94996.98;;;;
2019/05/25 05:00:50;;;;;;;8.150001;6.85;;;;;;;10.11;89.64746;94996.98;;;;
2019/05/25 05:01:51;;;;;;;8.150001;6.85;;;;;;;10.11;89.64746;94996.98;;;;
2019/05/25 05:02:52;;;;;;;8.150001;6.85;;;;;;;10.11;89.64746;94996.98;;;;
2019/05/25 05:03:53;;;;;;;8.150001;6.85;;;;;;;10.11;89.64746;94996.98;;;;
2019/05/25 05:04:55;;;;;;;8.150001;6.85;;;;;;;10.11;89.64746;94996.98;;;;
2019/05/25 05:05:56;;;;;;;8.150001;6.85;;;;;;;10.11;89.64746;94996.98;;;;
2019/05/25 05:06:57;;;;;;;8.150001;6.85;;;;;;;10.11;89.64746;94996.98;;;;
2019/05/25 05:07:58;;;;;;;8.150001;6.85;;;;;;;10.11;89.64746;94996.98;;;;
2019/05/25 05:08:59;;;;;;;8.150001;6.85;;;;;;;10.11;89.64746;94996.98;;;;
2019/05/25 05:10:00;;;;;;;8.150001;6.85;;;;;;;10.11;89.64746;94996.98;;;;
2019/05/25 05:11:01;;;;;;;6.999999;6.199999;;;;;;;10.68;89.13672;94995.89;;;;
2019/05/25 05:12:03;;;;;;;6.999999;6.199999;;;;;;;10.68;89.13672;94995.89;;;;
2019/05/25 05:13:04;;;;;;;6.999999;6.199999;;;;;;;10.68;89.13672;94995.89;;;;
2019/05/25 05:14:05;;;;;;;6.999999;6.199999;;;;;;;10.68;89.13672;94995.89;;;;
2019/05/25 05:15:06;;;;;;;6.999999;6.199999;;;;;;;10.68;89.13672;94995.89;;;;
2019/05/25 05:16:07;;;;;;;6.999999;6.199999;;;;;;;10.68;89.13672;94995.89;;;;
2019/05/25 05:17:09;;;;;;;6.999999;6.199999;;;;;;;10.68;89.13672;94995.89;;;;
2019/05/25 05:18:10;;;;;;;6.999999;6.199999;;;;;;;10.68;89.13672;94995.89;;;;
2019/05/25 05:19:11;;;;;;;6.999999;6.199999;;;;;;;10.68;89.13672;94995.89;;;;
2019/05/25 05:20:12;;;;;;;6.999999;6.199999;;;;;;;10.68;89.13672;94995.89;;;;
2019/05/25 05:21:13;;;;;;;7.700001;6.25;;;;;;;11.51;88.54883;94997.24;;;;
2019/05/25 05:22:14;;;;;;;7.700001;6.25;;;;;;;11.51;88.54883;94997.24;;;;
2019/05/25 05:23:15;;;;;;;7.700001;6.25;;;;;;;11.51;88.54883;94997.24;;;;
2019/05/25 05:24:16;;;;;;;7.700001;6.25;;;;;;;11.51;88.54883;94997.24;;;;
2019/05/25 05:25:17;;;;;;;7.700001;6.25;;;;;;;11.51;88.54883;94997.24;;;;
2019/05/25 05:26:18;;;;;;;7.700001;6.25;;;;;;;11.51;88.54883;94997.24;;;;
2019/05/25 05:27:19;;;;;;;7.700001;6.25;;;;;;;11.51;88.54883;94997.24;;;;
2019/05/25 05:28:20;;;;;;;7.700001;6.25;;;;;;;11.51;88.54883;94997.24;;;;
2019/05/25 05:29:22;;;;;;;7.700001;6.25;;;;;;;11.51;88.54883;94997.24;;;;
2019/05/25 05:30:23;;;;;;;7.700001;6.25;;;;;;;11.51;88.54883;94997.24;;;;
2019/05/25 05:31:30;;;;;;;7.700001;6.25;;;;;;;11.51;88.54883;94997.24;;;;
2019/05/25 05:32:31;;;;;;;7.700001;6.25;;;;;;;11.51;88.54883;94997.24;;;;
2019/05/25 05:33:32;;;;;;;7.700001;6.25;;;;;;;11.51;88.54883;94997.24;;;;
2019/05/25 05:34:33;;;;;;;7.700001;6.25;;;;;;;11.51;88.54883;94997.24;;;;
2019/05/25 05:35:34;;;;;;;7.700001;6.25;;;;;;;11.51;88.54883;94997.24;;;;
2019/05/25 05:36:35;;;;;;;7.700001;6.25;;;;;;;11.51;88.54883;94997.24;;;;
2019/05/25 05:37:37;;;;;;;7.700001;6.25;;;;;;;11.51;88.54883;94997.24;;;;
2019/05/25 05:38:38;;;;;;;7.700001;6.25;;;;;;;11.51;88.54883;94997.24;;;;
2019/05/25 05:39:39;;;;;;;7.700001;6.25;;;;;;;11.51;88.54883;94997.24;;;;